sensor_id;sensor_type;location;lat;lon;timestamp;temperature;humidity
31113;DHT22;17763;48.730;9.136;2022-11-09T00:16:42;12.30;99.90
31113;DHT22;17763;48.730;9.136;2022-11-09T00:19:08;12.30;99.90
31113;DHT22;17763;48.730;9.136;2022-11-09T00:27:35;12.30;99.90
31113;DHT22;17763;48.730;9.136;2022-11-09T00:30:01;12.30;99.90
31113;DHT22;17763;48.730;9.136;2022-11-09T00:32:26;12.30;99.90
31113;DHT22;17763;48.730;9.136;2022-11-09T00:34:52;12.30;99.90
31113;DHT22;17763;48.730;9.136;2022-11-09T00:37:20;12.30;99.90
31113;DHT22;17763;48.730;9.136;2022-11-09T00:39:45;12.30;99.90
31113;DHT22;17763;48.730;9.136;2022-11-09T00:42:11;12.30;99.90
31113;DHT22;17763;48.730;9.136;2022-11-09T00:44:37;12.30;99.90
31113;DHT22;17763;48.730;9.136;2022-11-09T00:47:02;12.30;99.90
31113;DHT22;17763;48.730;9.136;2022-11-09T00:49:30;12.30;99.90
31113;DHT22;17763;48.730;9.136;2022-11-09T00:51:56;12.30;99.90
31113;DHT22;17763;48.730;9.136;2022-11-09T00:54:21;12.30;99.90
31113;DHT22;17763;48.730;9.136;2022-11-09T00:56:49;12.30;99.90
31113;DHT22;17763;48.730;9.136;2022-11-09T00:59:17;12.30;99.90
31113;DHT22;17763;48.730;9.136;2022-11-09T01:01:42;12.30;99.90
31113;DHT22;17763;48.730;9.136;2022-11-09T01:04:08;12.30;99.90
31113;DHT22;17763;48.730;9.136;2022-11-09T01:06:34;12.30;99.90
31113;DHT22;17763;48.730;9.136;2022-11-09T01:08:59;12.30;99.90
31113;DHT22;17763;48.730;9.136;2022-11-09T01:11:25;12.30;99.90
31113;DHT22;17763;48.730;9.136;2022-11-09T01:13:51;12.20;99.90
31113;DHT22;17763;48.730;9.136;2022-11-09T01:16:20;12.20;99.90
31113;DHT22;17763;48.730;9.136;2022-11-09T01:18:46;12.20;99.90
31113;DHT22;17763;48.730;9.136;2022-11-09T01:21:14;12.20;99.90
31113;DHT22;17763;48.730;9.136;2022-11-09T01:23:40;12.20;99.90
31113;DHT22;17763;48.730;9.136;2022-11-09T01:26:09;12.30;99.90
31113;DHT22;17763;48.730;9.136;2022-11-09T01:28:38;12.30;99.90
31113;DHT22;17763;48.730;9.136;2022-11-09T01:31:06;12.20;99.90
31113;DHT22;17763;48.730;9.136;2022-11-09T01:33:33;12.20;99.90
31113;DHT22;17763;48.730;9.136;2022-11-09T01:36:11;12.20;99.90
31113;DHT22;17763;48.730;9.136;2022-11-09T01:38:38;12.20;99.90
31113;DHT22;17763;48.730;9.136;2022-11-09T01:41:05;12.20;99.90
31113;DHT22;17763;48.730;9.136;2022-11-09T01:43:31;12.20;99.90
31113;DHT22;17763;48.730;9.136;2022-11-09T01:48:52;12.10;99.90
31113;DHT22;17763;48.730;9.136;2022-11-09T01:51:29;12.10;99.90
31113;DHT22;17763;48.730;9.136;2022-11-09T01:54:00;12.10;99.90
31113;DHT22;17763;48.730;9.136;2022-11-09T01:56:28;12.10;99.90
31113;DHT22;17763;48.730;9.136;2022-11-09T01:58:59;12.20;99.90
31113;DHT22;17763;48.730;9.136;2022-11-09T02:01:26;12.10;99.90
31113;DHT22;17763;48.730;9.136;2022-11-09T02:04:07;12.10;99.90
31113;DHT22;17763;48.730;9.136;2022-11-09T02:06:34;12.20;99.90
31113;DHT22;17763;48.730;9.136;2022-11-09T02:09:24;12.20;99.90
31113;DHT22;17763;48.730;9.136;2022-11-09T02:11:51;12.20;99.90
31113;DHT22;17763;48.730;9.136;2022-11-09T02:14:18;12.20;99.90
31113;DHT22;17763;48.730;9.136;2022-11-09T02:16:45;12.20;99.90
31113;DHT22;17763;48.730;9.136;2022-11-09T02:19:11;12.20;99.90
31113;DHT22;17763;48.730;9.136;2022-11-09T02:21:37;12.30;99.90
31113;DHT22;17763;48.730;9.136;2022-11-09T02:24:05;12.30;99.90
31113;DHT22;17763;48.730;9.136;2022-11-09T02:26:46;12.40;99.90
31113;DHT22;17763;48.730;9.136;2022-11-09T02:29:21;12.40;99.90
31113;DHT22;17763;48.730;9.136;2022-11-09T02:31:52;12.50;99.90
31113;DHT22;17763;48.730;9.136;2022-11-09T02:34:20;12.60;99.90
31113;DHT22;17763;48.730;9.136;2022-11-09T02:36:46;12.60;99.90
31113;DHT22;17763;48.730;9.136;2022-11-09T02:39:20;12.60;99.90
31113;DHT22;17763;48.730;9.136;2022-11-09T02:41:50;12.70;99.90
31113;DHT22;17763;48.730;9.136;2022-11-09T02:44:18;12.80;99.90
31113;DHT22;17763;48.730;9.136;2022-11-09T02:46:44;12.80;99.90
31113;DHT22;17763;48.730;9.136;2022-11-09T02:49:10;12.90;99.90
31113;DHT22;17763;48.730;9.136;2022-11-09T02:51:38;12.90;99.90
31113;DHT22;17763;48.730;9.136;2022-11-09T02:54:04;13.00;99.90
31113;DHT22;17763;48.730;9.136;2022-11-09T02:56:29;13.00;99.90
31113;DHT22;17763;48.730;9.136;2022-11-09T02:58:55;13.00;99.90
31113;DHT22;17763;48.730;9.136;2022-11-09T03:01:20;13.00;99.90
31113;DHT22;17763;48.730;9.136;2022-11-09T03:03:46;13.10;99.90
31113;DHT22;17763;48.730;9.136;2022-11-09T03:06:12;13.10;99.90
31113;DHT22;17763;48.730;9.136;2022-11-09T03:08:37;13.00;99.90
31113;DHT22;17763;48.730;9.136;2022-11-09T03:11:03;13.10;99.90
31113;DHT22;17763;48.730;9.136;2022-11-09T03:13:33;13.10;99.90
31113;DHT22;17763;48.730;9.136;2022-11-09T03:16:03;13.10;99.90
31113;DHT22;17763;48.730;9.136;2022-11-09T03:18:29;13.10;99.90
31113;DHT22;17763;48.730;9.136;2022-11-09T03:21:00;13.00;99.90
31113;DHT22;17763;48.730;9.136;2022-11-09T03:23:26;12.90;99.90
31113;DHT22;17763;48.730;9.136;2022-11-09T03:25:51;12.80;99.90
31113;DHT22;17763;48.730;9.136;2022-11-09T03:28:17;12.80;99.90
31113;DHT22;17763;48.730;9.136;2022-11-09T03:30:45;12.70;99.90
31113;DHT22;17763;48.730;9.136;2022-11-09T03:33:11;12.70;99.90
31113;DHT22;17763;48.730;9.136;2022-11-09T03:35:38;12.70;99.90
31113;DHT22;17763;48.730;9.136;2022-11-09T03:38:04;12.70;99.90
31113;DHT22;17763;48.730;9.136;2022-11-09T03:40:30;12.60;99.90
31113;DHT22;17763;48.730;9.136;2022-11-09T03:42:56;12.50;99.90
31113;DHT22;17763;48.730;9.136;2022-11-09T03:45:23;12.50;99.90
31113;DHT22;17763;48.730;9.136;2022-11-09T03:47:49;12.50;99.90
31113;DHT22;17763;48.730;9.136;2022-11-09T03:50:16;12.50;99.90
31113;DHT22;17763;48.730;9.136;2022-11-09T03:52:45;12.50;99.90
31113;DHT22;17763;48.730;9.136;2022-11-09T03:55:13;12.50;99.90
31113;DHT22;17763;48.730;9.136;2022-11-09T03:57:44;12.50;99.90
31113;DHT22;17763;48.730;9.136;2022-11-09T04:00:12;12.50;99.90
31113;DHT22;17763;48.730;9.136;2022-11-09T04:02:38;12.50;99.90
31113;DHT22;17763;48.730;9.136;2022-11-09T04:05:04;12.50;99.90
31113;DHT22;17763;48.730;9.136;2022-11-09T04:07:32;12.50;99.90
31113;DHT22;17763;48.730;9.136;2022-11-09T04:09:57;12.60;99.90
31113;DHT22;17763;48.730;9.136;2022-11-09T04:12:23;12.50;99.90
31113;DHT22;17763;48.730;9.136;2022-11-09T04:14:49;12.50;99.90
31113;DHT22;17763;48.730;9.136;2022-11-09T04:17:15;12.50;99.90
31113;DHT22;17763;48.730;9.136;2022-11-09T04:19:43;12.50;99.90
31113;DHT22;17763;48.730;9.136;2022-11-09T04:22:08;12.50;99.90
31113;DHT22;17763;48.730;9.136;2022-11-09T04:24:34;12.50;99.90
31113;DHT22;17763;48.730;9.136;2022-11-09T04:26:59;12.40;99.90
31113;DHT22;17763;48.730;9.136;2022-11-09T04:29:25;12.40;99.90
31113;DHT22;17763;48.730;9.136;2022-11-09T04:31:51;12.40;99.90
31113;DHT22;17763;48.730;9.136;2022-11-09T04:34:18;12.40;99.90
31113;DHT22;17763;48.730;9.136;2022-11-09T04:36:46;12.40;99.90
31113;DHT22;17763;48.730;9.136;2022-11-09T04:39:12;12.40;99.90
31113;DHT22;17763;48.730;9.136;2022-11-09T04:41:37;12.40;99.90
31113;DHT22;17763;48.730;9.136;2022-11-09T04:44:03;12.40;99.90
31113;DHT22;17763;48.730;9.136;2022-11-09T04:46:31;12.30;99.90
31113;DHT22;17763;48.730;9.136;2022-11-09T04:48:57;12.30;99.90
31113;DHT22;17763;48.730;9.136;2022-11-09T04:51:22;12.30;99.90
31113;DHT22;17763;48.730;9.136;2022-11-09T04:53:50;12.30;99.90
31113;DHT22;17763;48.730;9.136;2022-11-09T04:56:16;12.20;99.90
31113;DHT22;17763;48.730;9.136;2022-11-09T04:58:44;12.20;99.90
31113;DHT22;17763;48.730;9.136;2022-11-09T05:01:12;12.20;99.90
31113;DHT22;17763;48.730;9.136;2022-11-09T05:03:38;12.20;99.90
31113;DHT22;17763;48.730;9.136;2022-11-09T05:06:04;12.20;99.90
31113;DHT22;17763;48.730;9.136;2022-11-09T05:08:54;12.10;99.90
31113;DHT22;17763;48.730;9.136;2022-11-09T05:11:20;12.10;99.90
31113;DHT22;17763;48.730;9.136;2022-11-09T05:13:46;12.10;99.90
31113;DHT22;17763;48.730;9.136;2022-11-09T05:16:12;12.10;99.90
31113;DHT22;17763;48.730;9.136;2022-11-09T05:18:38;12.00;99.90
31113;DHT22;17763;48.730;9.136;2022-11-09T05:21:04;12.00;99.90
31113;DHT22;17763;48.730;9.136;2022-11-09T05:23:30;12.10;99.90
31113;DHT22;17763;48.730;9.136;2022-11-09T05:26:14;12.00;99.90
31113;DHT22;17763;48.730;9.136;2022-11-09T05:28:39;12.00;99.90
31113;DHT22;17763;48.730;9.136;2022-11-09T05:31:05;12.00;99.90
31113;DHT22;17763;48.730;9.136;2022-11-09T05:33:31;12.00;99.90
31113;DHT22;17763;48.730;9.136;2022-11-09T05:35:57;12.00;99.90
31113;DHT22;17763;48.730;9.136;2022-11-09T05:38:26;12.00;99.90
31113;DHT22;17763;48.730;9.136;2022-11-09T05:40:52;12.00;99.90
31113;DHT22;17763;48.730;9.136;2022-11-09T05:43:18;12.00;99.90
31113;DHT22;17763;48.730;9.136;2022-11-09T05:45:44;12.00;99.90
31113;DHT22;17763;48.730;9.136;2022-11-09T05:48:11;12.00;99.90
31113;DHT22;17763;48.730;9.136;2022-11-09T05:50:37;12.00;99.90
31113;DHT22;17763;48.730;9.136;2022-11-09T05:53:03;12.00;99.90
31113;DHT22;17763;48.730;9.136;2022-11-09T05:55:29;12.00;99.90
31113;DHT22;17763;48.730;9.136;2022-11-09T05:57:57;12.00;99.90
31113;DHT22;17763;48.730;9.136;2022-11-09T06:00:23;12.00;99.90
31113;DHT22;17763;48.730;9.136;2022-11-09T06:02:48;12.00;99.90
31113;DHT22;17763;48.730;9.136;2022-11-09T06:05:14;12.00;99.90
31113;DHT22;17763;48.730;9.136;2022-11-09T06:07:40;12.00;99.90
31113;DHT22;17763;48.730;9.136;2022-11-09T06:10:07;11.90;99.90
31113;DHT22;17763;48.730;9.136;2022-11-09T06:12:32;11.90;99.90
31113;DHT22;17763;48.730;9.136;2022-11-09T06:14:58;11.90;99.90
31113;DHT22;17763;48.730;9.136;2022-11-09T06:17:24;11.90;99.90
31113;DHT22;17763;48.730;9.136;2022-11-09T06:19:49;11.90;99.90
31113;DHT22;17763;48.730;9.136;2022-11-09T06:22:15;11.90;99.90
31113;DHT22;17763;48.730;9.136;2022-11-09T06:24:43;11.90;99.90
31113;DHT22;17763;48.730;9.136;2022-11-09T06:27:08;11.90;99.90
31113;DHT22;17763;48.730;9.136;2022-11-09T06:29:34;11.90;99.90
31113;DHT22;17763;48.730;9.136;2022-11-09T06:31:59;11.90;99.90
31113;DHT22;17763;48.730;9.136;2022-11-09T06:34:28;11.90;99.90
31113;DHT22;17763;48.730;9.136;2022-11-09T06:36:55;11.90;99.90
31113;DHT22;17763;48.730;9.136;2022-11-09T06:39:20;11.90;99.90
31113;DHT22;17763;48.730;9.136;2022-11-09T06:41:46;11.90;99.90
31113;DHT22;17763;48.730;9.136;2022-11-09T06:44:11;11.90;99.90
31113;DHT22;17763;48.730;9.136;2022-11-09T06:46:37;11.90;99.90
31113;DHT22;17763;48.730;9.136;2022-11-09T06:49:03;11.90;99.90
31113;DHT22;17763;48.730;9.136;2022-11-09T06:51:28;11.90;99.90
31113;DHT22;17763;48.730;9.136;2022-11-09T06:53:58;11.90;99.90
31113;DHT22;17763;48.730;9.136;2022-11-09T06:56:26;12.00;99.90
31113;DHT22;17763;48.730;9.136;2022-11-09T06:58:52;12.00;99.90
31113;DHT22;17763;48.730;9.136;2022-11-09T07:01:25;12.00;99.90
31113;DHT22;17763;48.730;9.136;2022-11-09T07:03:51;12.00;99.90
31113;DHT22;17763;48.730;9.136;2022-11-09T07:06:17;12.00;99.90
31113;DHT22;17763;48.730;9.136;2022-11-09T07:08:45;11.90;99.90
31113;DHT22;17763;48.730;9.136;2022-11-09T07:11:13;11.90;99.90
31113;DHT22;17763;48.730;9.136;2022-11-09T07:13:44;11.80;99.90
31113;DHT22;17763;48.730;9.136;2022-11-09T07:16:11;11.80;99.90
31113;DHT22;17763;48.730;9.136;2022-11-09T07:18:37;11.80;99.90
31113;DHT22;17763;48.730;9.136;2022-11-09T07:21:06;11.80;99.90
31113;DHT22;17763;48.730;9.136;2022-11-09T07:23:31;11.70;99.90
31113;DHT22;17763;48.730;9.136;2022-11-09T07:25:58;11.70;99.90
31113;DHT22;17763;48.730;9.136;2022-11-09T07:28:24;11.70;99.90
31113;DHT22;17763;48.730;9.136;2022-11-09T07:30:49;11.60;99.90
31113;DHT22;17763;48.730;9.136;2022-11-09T07:33:18;11.60;99.90
31113;DHT22;17763;48.730;9.136;2022-11-09T07:35:44;11.60;99.90
31113;DHT22;17763;48.730;9.136;2022-11-09T07:38:11;11.60;99.90
31113;DHT22;17763;48.730;9.136;2022-11-09T07:40:37;11.60;99.90
31113;DHT22;17763;48.730;9.136;2022-11-09T07:43:04;11.60;99.90
31113;DHT22;17763;48.730;9.136;2022-11-09T07:45:34;11.60;99.90
31113;DHT22;17763;48.730;9.136;2022-11-09T07:48:02;11.70;99.90
31113;DHT22;17763;48.730;9.136;2022-11-09T07:50:29;11.70;99.90
31113;DHT22;17763;48.730;9.136;2022-11-09T07:52:56;11.70;99.90
31113;DHT22;17763;48.730;9.136;2022-11-09T07:55:22;11.80;99.90
31113;DHT22;17763;48.730;9.136;2022-11-09T07:57:48;11.80;99.90
31113;DHT22;17763;48.730;9.136;2022-11-09T08:00:15;11.80;99.90
31113;DHT22;17763;48.730;9.136;2022-11-09T08:02:41;11.90;99.90
31113;DHT22;17763;48.730;9.136;2022-11-09T08:05:08;11.90;99.90
31113;DHT22;17763;48.730;9.136;2022-11-09T08:07:34;11.90;99.90
31113;DHT22;17763;48.730;9.136;2022-11-09T08:10:00;12.00;99.90
31113;DHT22;17763;48.730;9.136;2022-11-09T08:12:25;12.00;99.90
31113;DHT22;17763;48.730;9.136;2022-11-09T08:14:51;12.00;99.90
31113;DHT22;17763;48.730;9.136;2022-11-09T08:17:16;12.00;99.90
31113;DHT22;17763;48.730;9.136;2022-11-09T08:19:42;12.10;99.90
31113;DHT22;17763;48.730;9.136;2022-11-09T08:22:07;12.10;99.90
31113;DHT22;17763;48.730;9.136;2022-11-09T08:24:35;12.10;99.90
31113;DHT22;17763;48.730;9.136;2022-11-09T08:27:03;12.10;99.90
31113;DHT22;17763;48.730;9.136;2022-11-09T08:29:28;12.10;99.90
31113;DHT22;17763;48.730;9.136;2022-11-09T08:31:57;12.10;99.90
31113;DHT22;17763;48.730;9.136;2022-11-09T08:34:22;12.20;99.90
31113;DHT22;17763;48.730;9.136;2022-11-09T08:36:51;12.20;99.90
31113;DHT22;17763;48.730;9.136;2022-11-09T08:39:16;12.20;99.90
31113;DHT22;17763;48.730;9.136;2022-11-09T08:41:42;12.20;99.90
31113;DHT22;17763;48.730;9.136;2022-11-09T08:44:08;12.30;99.90
31113;DHT22;17763;48.730;9.136;2022-11-09T08:46:34;12.30;99.90
31113;DHT22;17763;48.730;9.136;2022-11-09T08:49:02;12.30;99.90
31113;DHT22;17763;48.730;9.136;2022-11-09T08:51:32;12.30;99.90
31113;DHT22;17763;48.730;9.136;2022-11-09T08:53:57;12.40;99.90
31113;DHT22;17763;48.730;9.136;2022-11-09T08:56:23;12.40;99.90
31113;DHT22;17763;48.730;9.136;2022-11-09T08:58:51;12.40;99.90
31113;DHT22;17763;48.730;9.136;2022-11-09T09:01:19;12.50;99.90
31113;DHT22;17763;48.730;9.136;2022-11-09T09:03:48;12.50;99.90
31113;DHT22;17763;48.730;9.136;2022-11-09T09:06:16;12.50;99.90
31113;DHT22;17763;48.730;9.136;2022-11-09T09:08:42;12.60;99.90
31113;DHT22;17763;48.730;9.136;2022-11-09T09:11:09;12.60;99.90
31113;DHT22;17763;48.730;9.136;2022-11-09T09:13:35;12.60;99.90
31113;DHT22;17763;48.730;9.136;2022-11-09T09:16:11;12.60;99.90
31113;DHT22;17763;48.730;9.136;2022-11-09T09:18:37;12.70;99.90
31113;DHT22;17763;48.730;9.136;2022-11-09T09:21:09;12.70;99.90
31113;DHT22;17763;48.730;9.136;2022-11-09T09:23:38;12.70;99.90
31113;DHT22;17763;48.730;9.136;2022-11-09T09:26:06;12.70;99.90
31113;DHT22;17763;48.730;9.136;2022-11-09T09:28:32;12.70;99.90
31113;DHT22;17763;48.730;9.136;2022-11-09T09:30:59;12.70;99.90
31113;DHT22;17763;48.730;9.136;2022-11-09T09:33:28;12.80;99.90
31113;DHT22;17763;48.730;9.136;2022-11-09T09:35:59;12.80;99.90
31113;DHT22;17763;48.730;9.136;2022-11-09T09:38:26;12.80;99.90
31113;DHT22;17763;48.730;9.136;2022-11-09T09:41:04;12.80;99.90
31113;DHT22;17763;48.730;9.136;2022-11-09T09:43:39;12.90;99.90
31113;DHT22;17763;48.730;9.136;2022-11-09T09:48:46;12.90;99.90
31113;DHT22;17763;48.730;9.136;2022-11-09T09:51:20;13.00;99.90
31113;DHT22;17763;48.730;9.136;2022-11-09T09:54:02;13.00;99.90
31113;DHT22;17763;48.730;9.136;2022-11-09T09:56:36;13.00;99.90
31113;DHT22;17763;48.730;9.136;2022-11-09T10:01:54;13.10;99.90
31113;DHT22;17763;48.730;9.136;2022-11-09T10:04:28;13.20;99.90
31113;DHT22;17763;48.730;9.136;2022-11-09T10:16:00;13.30;99.90
31113;DHT22;17763;48.730;9.136;2022-11-09T10:26:57;13.50;99.90
31113;DHT22;17763;48.730;9.136;2022-11-09T10:29:32;13.50;99.90
31113;DHT22;17763;48.730;9.136;2022-11-09T10:32:15;13.50;99.90
31113;DHT22;17763;48.730;9.136;2022-11-09T10:35:20;13.60;99.90
31113;DHT22;17763;48.730;9.136;2022-11-09T10:37:49;13.60;99.90
31113;DHT22;17763;48.730;9.136;2022-11-09T10:43:07;13.70;99.90
31113;DHT22;17763;48.730;9.136;2022-11-09T10:48:01;13.80;99.90
31113;DHT22;17763;48.730;9.136;2022-11-09T10:50:48;13.80;99.90
31113;DHT22;17763;48.730;9.136;2022-11-09T10:53:20;13.90;99.90
31113;DHT22;17763;48.730;9.136;2022-11-09T10:58:51;14.00;99.90
31113;DHT22;17763;48.730;9.136;2022-11-09T11:03:46;14.10;99.90
31113;DHT22;17763;48.730;9.136;2022-11-09T11:11:28;14.10;99.90
31113;DHT22;17763;48.730;9.136;2022-11-09T11:14:18;14.10;99.90
31113;DHT22;17763;48.730;9.136;2022-11-09T11:16:46;14.10;99.90
31113;DHT22;17763;48.730;9.136;2022-11-09T11:22:22;14.20;99.90
31113;DHT22;17763;48.730;9.136;2022-11-09T11:27:34;14.20;99.90
31113;DHT22;17763;48.730;9.136;2022-11-09T11:30:18;14.20;99.90
31113;DHT22;17763;48.730;9.136;2022-11-09T11:32:47;14.20;99.90
31113;DHT22;17763;48.730;9.136;2022-11-09T11:35:20;14.20;99.90
31113;DHT22;17763;48.730;9.136;2022-11-09T11:52:22;14.20;99.90
31113;DHT22;17763;48.730;9.136;2022-11-09T12:00:25;14.20;99.90
31113;DHT22;17763;48.730;9.136;2022-11-09T12:03:29;14.10;99.90
31113;DHT22;17763;48.730;9.136;2022-11-09T12:11:12;14.10;99.90
31113;DHT22;17763;48.730;9.136;2022-11-09T12:14:01;14.20;99.90
31113;DHT22;17763;48.730;9.136;2022-11-09T12:16:40;14.20;99.90
31113;DHT22;17763;48.730;9.136;2022-11-09T12:22:18;14.20;99.90
31113;DHT22;17763;48.730;9.136;2022-11-09T12:30:11;14.30;99.90
31113;DHT22;17763;48.730;9.136;2022-11-09T12:32:49;14.30;99.90
31113;DHT22;17763;48.730;9.136;2022-11-09T12:40:38;14.50;99.90
31113;DHT22;17763;48.730;9.136;2022-11-09T12:43:38;14.50;99.90
31113;DHT22;17763;48.730;9.136;2022-11-09T12:46:10;14.50;99.90
31113;DHT22;17763;48.730;9.136;2022-11-09T12:48:42;14.60;99.90
31113;DHT22;17763;48.730;9.136;2022-11-09T12:51:09;14.60;99.90
31113;DHT22;17763;48.730;9.136;2022-11-09T12:53:36;14.60;99.90
31113;DHT22;17763;48.730;9.136;2022-11-09T12:58:42;14.70;99.90
31113;DHT22;17763;48.730;9.136;2022-11-09T13:04:01;14.70;99.90
31113;DHT22;17763;48.730;9.136;2022-11-09T13:06:29;14.70;99.90
31113;DHT22;17763;48.730;9.136;2022-11-09T13:09:03;14.70;99.90
31113;DHT22;17763;48.730;9.136;2022-11-09T13:16:57;14.80;99.90
31113;DHT22;17763;48.730;9.136;2022-11-09T13:24:57;14.70;99.90
31113;DHT22;17763;48.730;9.136;2022-11-09T13:30:00;14.80;99.90
31113;DHT22;17763;48.730;9.136;2022-11-09T13:32:27;14.70;99.90
31113;DHT22;17763;48.730;9.136;2022-11-09T13:34:59;14.80;99.90
31113;DHT22;17763;48.730;9.136;2022-11-09T13:48:34;14.70;99.90
31113;DHT22;17763;48.730;9.136;2022-11-09T13:56:30;14.70;99.90
31113;DHT22;17763;48.730;9.136;2022-11-09T14:01:43;14.70;99.90
31113;DHT22;17763;48.730;9.136;2022-11-09T14:04:26;14.70;99.90
31113;DHT22;17763;48.730;9.136;2022-11-09T14:07:28;14.70;99.90
31113;DHT22;17763;48.730;9.136;2022-11-09T14:20:51;14.60;99.90
31113;DHT22;17763;48.730;9.136;2022-11-09T14:23:21;14.60;99.90
31113;DHT22;17763;48.730;9.136;2022-11-09T14:25:47;14.60;99.90
31113;DHT22;17763;48.730;9.136;2022-11-09T14:28:20;14.60;99.90
31113;DHT22;17763;48.730;9.136;2022-11-09T14:30:48;14.60;99.90
31113;DHT22;17763;48.730;9.136;2022-11-09T14:33:30;14.60;99.90
31113;DHT22;17763;48.730;9.136;2022-11-09T14:36:01;14.60;99.90
31113;DHT22;17763;48.730;9.136;2022-11-09T14:38:30;14.60;99.90
31113;DHT22;17763;48.730;9.136;2022-11-09T14:40:56;14.60;99.90
31113;DHT22;17763;48.730;9.136;2022-11-09T14:43:41;14.50;99.90
31113;DHT22;17763;48.730;9.136;2022-11-09T14:46:22;14.50;99.90
31113;DHT22;17763;48.730;9.136;2022-11-09T14:48:56;14.50;99.90
31113;DHT22;17763;48.730;9.136;2022-11-09T14:51:36;14.50;99.90
31113;DHT22;17763;48.730;9.136;2022-11-09T14:54:10;14.50;99.90
31113;DHT22;17763;48.730;9.136;2022-11-09T14:56:40;14.40;99.90
31113;DHT22;17763;48.730;9.136;2022-11-09T14:59:09;14.40;99.90
31113;DHT22;17763;48.730;9.136;2022-11-09T15:01:36;14.40;99.90
31113;DHT22;17763;48.730;9.136;2022-11-09T15:04:15;14.30;99.90
31113;DHT22;17763;48.730;9.136;2022-11-09T15:06:53;14.30;99.90
31113;DHT22;17763;48.730;9.136;2022-11-09T15:09:31;14.30;99.90
31113;DHT22;17763;48.730;9.136;2022-11-09T15:11:58;14.30;99.90
31113;DHT22;17763;48.730;9.136;2022-11-09T15:14:29;14.30;99.90
31113;DHT22;17763;48.730;9.136;2022-11-09T15:17:14;14.30;99.90
31113;DHT22;17763;48.730;9.136;2022-11-09T15:19:54;14.20;99.90
31113;DHT22;17763;48.730;9.136;2022-11-09T15:40:52;14.10;99.90
31113;DHT22;17763;48.730;9.136;2022-11-09T15:43:17;14.20;99.90
31113;DHT22;17763;48.730;9.136;2022-11-09T15:45:45;14.10;99.90
31113;DHT22;17763;48.730;9.136;2022-11-09T15:48:11;14.10;99.90
31113;DHT22;17763;48.730;9.136;2022-11-09T15:50:37;14.10;99.90
31113;DHT22;17763;48.730;9.136;2022-11-09T15:53:03;14.10;99.90
31113;DHT22;17763;48.730;9.136;2022-11-09T15:55:28;14.10;99.90
31113;DHT22;17763;48.730;9.136;2022-11-09T15:57:54;14.10;99.90
31113;DHT22;17763;48.730;9.136;2022-11-09T16:00:23;14.10;99.90
31113;DHT22;17763;48.730;9.136;2022-11-09T16:02:51;14.10;99.90
31113;DHT22;17763;48.730;9.136;2022-11-09T16:05:17;14.00;99.90
31113;DHT22;17763;48.730;9.136;2022-11-09T16:07:52;14.10;99.90
31113;DHT22;17763;48.730;9.136;2022-11-09T16:10:18;14.00;99.90
31113;DHT22;17763;48.730;9.136;2022-11-09T16:12:52;14.00;99.90
31113;DHT22;17763;48.730;9.136;2022-11-09T16:15:22;14.00;99.90
31113;DHT22;17763;48.730;9.136;2022-11-09T16:17:50;14.00;99.90
31113;DHT22;17763;48.730;9.136;2022-11-09T16:20:17;13.90;99.90
31113;DHT22;17763;48.730;9.136;2022-11-09T16:22:45;13.90;99.90
31113;DHT22;17763;48.730;9.136;2022-11-09T16:25:12;13.90;99.90
31113;DHT22;17763;48.730;9.136;2022-11-09T16:27:38;13.80;99.90
31113;DHT22;17763;48.730;9.136;2022-11-09T16:30:05;13.80;99.90
31113;DHT22;17763;48.730;9.136;2022-11-09T16:32:32;13.80;99.90
31113;DHT22;17763;48.730;9.136;2022-11-09T16:34:58;13.80;99.90
31113;DHT22;17763;48.730;9.136;2022-11-09T16:37:23;13.70;99.90
31113;DHT22;17763;48.730;9.136;2022-11-09T16:39:49;13.70;99.90
31113;DHT22;17763;48.730;9.136;2022-11-09T16:42:16;13.60;99.90
31113;DHT22;17763;48.730;9.136;2022-11-09T16:44:45;13.60;99.90
31113;DHT22;17763;48.730;9.136;2022-11-09T16:47:14;13.60;99.90
31113;DHT22;17763;48.730;9.136;2022-11-09T16:49:48;13.60;99.90
31113;DHT22;17763;48.730;9.136;2022-11-09T16:52:13;13.60;99.90
31113;DHT22;17763;48.730;9.136;2022-11-09T16:54:40;13.60;99.90
31113;DHT22;17763;48.730;9.136;2022-11-09T16:57:06;13.50;99.90
31113;DHT22;17763;48.730;9.136;2022-11-09T16:59:34;13.60;99.90
31113;DHT22;17763;48.730;9.136;2022-11-09T17:01:59;13.60;99.90
31113;DHT22;17763;48.730;9.136;2022-11-09T17:04:27;13.50;99.90
31113;DHT22;17763;48.730;9.136;2022-11-09T17:06:53;13.60;99.90
31113;DHT22;17763;48.730;9.136;2022-11-09T17:09:21;13.60;99.90
31113;DHT22;17763;48.730;9.136;2022-11-09T17:11:47;13.50;99.90
31113;DHT22;17763;48.730;9.136;2022-11-09T17:14:13;13.60;99.90
31113;DHT22;17763;48.730;9.136;2022-11-09T17:16:38;13.60;99.90
31113;DHT22;17763;48.730;9.136;2022-11-09T17:19:06;13.60;99.90
31113;DHT22;17763;48.730;9.136;2022-11-09T17:21:32;13.60;99.90
31113;DHT22;17763;48.730;9.136;2022-11-09T17:23:58;13.50;99.90
31113;DHT22;17763;48.730;9.136;2022-11-09T17:26:24;13.50;99.90
31113;DHT22;17763;48.730;9.136;2022-11-09T17:28:50;13.50;99.90
31113;DHT22;17763;48.730;9.136;2022-11-09T17:31:18;13.50;99.90
31113;DHT22;17763;48.730;9.136;2022-11-09T17:33:44;13.40;99.90
31113;DHT22;17763;48.730;9.136;2022-11-09T17:36:11;13.30;99.90
31113;DHT22;17763;48.730;9.136;2022-11-09T17:38:40;13.40;99.90
31113;DHT22;17763;48.730;9.136;2022-11-09T17:41:09;13.40;99.90
31113;DHT22;17763;48.730;9.136;2022-11-09T17:43:36;13.30;99.90
31113;DHT22;17763;48.730;9.136;2022-11-09T17:46:07;13.30;99.90
31113;DHT22;17763;48.730;9.136;2022-11-09T17:48:34;13.30;99.90
31113;DHT22;17763;48.730;9.136;2022-11-09T17:51:01;13.30;99.90
31113;DHT22;17763;48.730;9.136;2022-11-09T17:53:28;13.30;99.90
31113;DHT22;17763;48.730;9.136;2022-11-09T17:55:53;13.30;99.90
31113;DHT22;17763;48.730;9.136;2022-11-09T17:58:19;13.30;99.90
31113;DHT22;17763;48.730;9.136;2022-11-09T18:00:45;13.30;99.90
31113;DHT22;17763;48.730;9.136;2022-11-09T18:03:11;13.30;99.90
31113;DHT22;17763;48.730;9.136;2022-11-09T18:05:38;13.30;99.90
31113;DHT22;17763;48.730;9.136;2022-11-09T18:08:05;13.40;99.90
31113;DHT22;17763;48.730;9.136;2022-11-09T18:10:36;13.30;99.90
31113;DHT22;17763;48.730;9.136;2022-11-09T18:13:02;13.30;99.90
31113;DHT22;17763;48.730;9.136;2022-11-09T18:15:27;13.30;99.90
31113;DHT22;17763;48.730;9.136;2022-11-09T18:17:53;13.40;99.90
31113;DHT22;17763;48.730;9.136;2022-11-09T18:20:19;13.30;99.90
31113;DHT22;17763;48.730;9.136;2022-11-09T18:22:45;13.30;99.90
31113;DHT22;17763;48.730;9.136;2022-11-09T18:25:10;13.40;99.90
31113;DHT22;17763;48.730;9.136;2022-11-09T18:27:38;13.30;99.90
31113;DHT22;17763;48.730;9.136;2022-11-09T18:30:04;13.40;99.90
31113;DHT22;17763;48.730;9.136;2022-11-09T18:32:30;13.30;99.90
31113;DHT22;17763;48.730;9.136;2022-11-09T18:34:56;13.30;99.90